createdAt,value
2022-08-17T05:08:00.142Z,20.78
2022-08-17T05:10:33.091Z,21.35
2022-08-17T05:13:04.115Z,21.62
2022-08-17T05:15:36.024Z,21.82
2022-08-17T05:18:06.556Z,21.70
2022-08-17T05:20:37.460Z,22.08
2022-08-17T05:23:12.639Z,22.25
2022-08-17T05:25:46.257Z,22.23
2022-08-17T05:28:18.684Z,22.23
2022-08-17T05:30:53.237Z,22.26
2022-08-17T05:33:25.268Z,22.31
2022-08-17T05:35:57.670Z,22.08
2022-08-17T05:38:50.928Z,22.19
2022-08-17T05:41:24.131Z,22.19
2022-08-17T05:43:56.437Z,22.68
2022-08-17T05:46:29.225Z,22.81
2022-08-17T05:49:04.417Z,22.98
2022-08-17T05:52:01.532Z,22.97
2022-08-17T05:54:52.460Z,22.86
2022-08-17T05:57:43.500Z,22.79
2022-08-17T06:00:31.105Z,22.84
2022-08-17T06:03:14.118Z,22.92
2022-08-17T06:05:56.974Z,23.12
2022-08-17T06:08:36.747Z,23.28
2022-08-17T06:11:20.520Z,23.27
2022-08-17T06:14:19.135Z,23.37
2022-08-17T06:16:53.599Z,23.43
2022-08-17T06:19:30.433Z,23.73
2022-08-17T06:22:02.809Z,23.66
2022-08-17T06:24:42.288Z,23.75
2022-08-17T06:27:25.680Z,23.39
2022-08-17T06:30:05.517Z,23.50
2022-08-17T06:32:38.094Z,23.65
2022-08-17T06:35:10.462Z,23.82
2022-08-17T06:38:04.788Z,24.22
2022-08-17T06:41:00.288Z,24.53
2022-08-17T06:43:46.130Z,24.73
2022-08-17T06:46:25.400Z,25.07
2022-08-17T06:49:10.589Z,25.44
2022-08-17T06:51:43.895Z,25.38
2022-08-17T06:54:21.222Z,25.31
2022-08-17T06:56:59.791Z,25.59
2022-08-17T06:59:54.908Z,25.77
2022-08-17T07:03:02.723Z,25.68
2022-08-17T07:05:39.327Z,25.68
2022-08-17T07:08:17.108Z,25.46
2022-08-17T07:10:50.819Z,25.64
2022-08-17T07:13:29.481Z,25.79
2022-08-17T07:16:18.473Z,25.72
2022-08-17T07:18:49.738Z,25.57
2022-08-17T07:21:27.830Z,25.67
2022-08-17T07:24:06.172Z,25.70
2022-08-17T07:26:38.938Z,25.71
2022-08-17T07:29:09.453Z,25.77
2022-08-17T07:31:41.923Z,25.58
2022-08-17T07:34:15.350Z,25.88
2022-08-17T07:36:45.343Z,26.03
2022-08-17T07:39:15.042Z,26.00
2022-08-17T07:41:58.010Z,26.22
2022-08-17T07:44:29.344Z,26.33
2022-08-17T07:47:14.404Z,26.31
2022-08-17T07:49:48.086Z,26.50
2022-08-17T07:52:51.496Z,26.31
2022-08-17T07:55:32.777Z,26.54
2022-08-17T07:58:03.693Z,26.63
2022-08-17T08:00:33.810Z,26.66
2022-08-17T08:03:23.696Z,26.89
2022-08-17T08:06:01.233Z,26.88
2022-08-17T08:08:35.434Z,27.08
2022-08-17T08:11:09.212Z,27.19
2022-08-17T08:13:45.174Z,27.20
2022-08-17T08:16:29.343Z,27.06
2022-08-17T08:19:03.857Z,27.21
2022-08-17T08:21:46.502Z,27.45
2022-08-17T08:24:30.785Z,27.54
2022-08-17T08:27:09.643Z,27.69
2022-08-17T08:29:48.793Z,27.79
2022-08-17T08:32:23.241Z,27.95
2022-08-17T08:35:07.289Z,27.91
2022-08-17T08:37:50.105Z,28.06
2022-08-17T08:40:38.417Z,28.19
2022-08-17T08:43:18.925Z,28.20
2022-08-17T08:45:57.867Z,28.25
2022-08-17T08:48:58.143Z,28.37
2022-08-17T08:51:41.977Z,28.44
2022-08-17T08:54:26.501Z,28.67
2022-08-17T09:00:10.942Z,28.68
2022-08-17T09:03:06.400Z,28.48
2022-08-17T09:05:48.676Z,28.66
2022-08-17T09:08:31.905Z,28.89
2022-08-17T09:11:06.613Z,28.72
2022-08-17T09:13:54.673Z,29.26
2022-08-17T09:16:33.231Z,29.47
2022-08-17T09:19:12.477Z,29.55
2022-08-17T09:25:44.356Z,30.32
2022-08-17T09:28:24.005Z,30.94
2022-08-17T09:31:05.110Z,30.47
2022-08-17T09:33:41.742Z,30.74
2022-08-17T09:36:29.960Z,30.47
2022-08-17T09:39:04.630Z,31.01
2022-08-17T09:45:51.564Z,31.11
2022-08-17T09:48:30.054Z,31.24
2022-08-17T09:51:07.141Z,31.12
2022-08-17T09:53:44.558Z,31.32
2022-08-17T09:56:48.242Z,31.28
2022-08-17T09:59:49.106Z,30.90
2022-08-17T10:09:16.227Z,30.84
2022-08-17T10:12:02.576Z,31.22
2022-08-17T10:15:11.991Z,31.33
2022-08-17T10:17:57.348Z,31.07
2022-08-17T10:20:36.748Z,31.36
2022-08-17T10:23:27.348Z,31.71
2022-08-17T10:26:19.338Z,32.31
2022-08-17T10:28:55.111Z,32.11
2022-08-17T10:42:02.862Z,31.36
2022-08-17T10:44:49.912Z,31.31
2022-08-17T10:47:27.839Z,31.49
2022-08-17T11:03:54.865Z,32.04
2022-08-17T11:06:34.315Z,32.16
2022-08-17T11:09:36.712Z,32.09
2022-08-17T11:16:07.654Z,32.13
2022-08-17T11:19:00.007Z,32.16
2022-08-17T11:29:10.845Z,32.15
2022-08-17T11:31:45.047Z,31.46
2022-08-17T11:34:23.196Z,32.01
2022-08-17T11:37:14.580Z,32.23
2022-08-17T11:40:06.497Z,32.32
2022-08-17T11:43:01.393Z,32.37
2022-08-17T11:45:44.847Z,32.33
2022-08-17T11:48:35.815Z,32.01
2022-08-17T11:51:28.840Z,32.17
2022-08-17T11:56:56.818Z,32.44
2022-08-17T11:59:58.754Z,32.51
2022-08-17T12:02:47.410Z,32.67
2022-08-17T12:05:38.848Z,32.78
2022-08-17T12:08:22.872Z,32.69
2022-08-17T12:11:04.238Z,32.81
2022-08-17T12:13:46.076Z,32.68
2022-08-17T12:16:19.241Z,32.55
2022-08-17T12:18:53.944Z,32.65
2022-08-17T12:21:37.285Z,32.41
2022-08-17T12:24:18.803Z,32.27
2022-08-17T12:26:55.221Z,32.60
2022-08-17T12:29:35.695Z,32.54
2022-08-17T12:32:16.630Z,32.59
2022-08-17T12:34:48.329Z,32.41
2022-08-17T12:37:22.028Z,32.47
2022-08-17T12:39:59.427Z,32.33
2022-08-17T12:42:34.890Z,32.86
2022-08-17T12:45:05.109Z,32.60
2022-08-17T12:47:39.846Z,32.50
2022-08-17T12:50:29.298Z,32.22
2022-08-17T12:53:02.470Z,32.08
2022-08-17T12:55:40.581Z,32.16
2022-08-17T12:58:15.219Z,32.19
2022-08-17T13:00:51.506Z,32.23
2022-08-17T13:03:24.011Z,32.27
2022-08-17T13:06:00.687Z,32.20
2022-08-17T13:08:35.583Z,32.47
2022-08-17T13:11:11.191Z,32.50
2022-08-17T13:13:44.050Z,32.42
2022-08-17T13:16:21.339Z,32.63
2022-08-17T13:18:53.181Z,32.69
2022-08-17T13:21:30.727Z,32.70
2022-08-17T13:24:04.158Z,32.75
2022-08-17T13:26:40.219Z,32.95
2022-08-17T13:33:04.827Z,33.03
2022-08-17T13:35:59.223Z,32.66
2022-08-17T13:38:56.862Z,33.10
2022-08-17T13:42:22.283Z,32.44
2022-08-17T13:45:50.407Z,31.77
2022-08-17T13:48:33.389Z,32.43
2022-08-17T13:51:46.863Z,31.34
2022-08-17T13:54:37.931Z,31.60
2022-08-17T13:57:25.638Z,31.77
2022-08-17T14:00:34.225Z,31.80
2022-08-17T14:03:28.104Z,31.49
2022-08-17T14:06:13.445Z,31.28
2022-08-17T14:09:07.759Z,31.79
2022-08-17T14:11:55.801Z,32.65
2022-08-17T14:14:44.836Z,32.06
2022-08-17T14:21:02.776Z,31.49
2022-08-17T14:24:01.092Z,31.87
2022-08-17T14:27:08.537Z,31.94
2022-08-17T14:30:11.449Z,31.79
2022-08-17T14:33:12.612Z,31.31
2022-08-17T14:47:31.209Z,31.85
2022-08-17T14:50:32.127Z,31.25
2022-08-17T14:57:25.232Z,31.78
2022-08-17T15:01:05.454Z,31.58
2022-08-17T15:04:19.551Z,31.92
2022-08-17T15:07:03.819Z,31.70
2022-08-17T15:09:52.268Z,29.82
2022-08-17T15:12:53.172Z,30.06
2022-08-17T15:15:44.721Z,30.40
2022-08-17T15:18:33.185Z,29.09
2022-08-17T15:21:28.294Z,28.91
2022-08-17T15:28:27.064Z,28.84
2022-08-17T15:31:10.113Z,29.84
2022-08-17T15:34:21.980Z,30.37
2022-08-17T15:37:17.065Z,29.37
2022-08-17T15:40:14.456Z,29.70
2022-08-17T17:41:34.324Z,28.67
2022-08-17T17:44:27.618Z,28.49
2022-08-17T18:01:27.557Z,29.29
2022-08-17T18:04:34.712Z,28.37
2022-08-17T18:07:29.358Z,29.25
2022-08-17T18:10:29.293Z,30.45
2022-08-17T18:13:14.291Z,29.26
2022-08-17T18:15:51.178Z,29.15
2022-08-17T18:18:37.901Z,28.89
2022-08-17T18:21:15.697Z,28.78
2022-08-17T18:23:58.460Z,28.70
2022-08-17T18:31:12.992Z,26.59
2022-08-17T18:41:20.734Z,28.64
2022-08-17T18:44:05.456Z,27.88
2022-08-17T18:46:39.522Z,28.01
2022-08-17T18:49:31.037Z,27.85
